Time;durP1;ratioP1;P1;durP2;ratioP2;P2;SDS_P1;SDS_P2;PMS_P1;PMS_P2;Temp;Humidity;BMP_temperature;BMP_pressure;BME280_temperature;BME280_humidity;BME280_pressure;Samples;Min_cycle;Max_cycle;Signal;HPM_P1;HPM_P2
2022/01/12 00:00:27;;;;;;;92.00;30.98;;;;;;;;;;4870141;29;20135;-76
2022/01/12 00:02:53;;;;;;;100.40;30.27;;;;;;;;;;4884924;29;20044;-78
2022/01/12 00:05:20;;;;;;;75.45;28.90;;;;;;;;;;4870104;29;20369;-77
2022/01/12 00:07:49;;;;;;;120.68;31.90;;;;;;;;;;4901846;29;20144;-77
2022/01/12 00:10:16;;;;;;;144.45;34.30;;;;;;;;;;4869265;29;20148;-78
2022/01/12 00:12:42;;;;;;;79.50;30.33;;;;;;;;;;4900996;29;20051;-76
2022/01/12 00:15:09;;;;;;;101.18;31.77;;;;;;;;;;4901779;29;20041;-77
2022/01/12 00:17:35;;;;;;;129.95;32.50;;;;;;;;;;4885350;29;20037;-77
2022/01/12 00:20:01;;;;;;;122.43;33.17;;;;;;;;;;4869831;29;20040;-76
2022/01/12 00:22:28;;;;;;;87.80;30.35;;;;;;;;;;4885357;29;20497;-78
2022/01/12 00:33:11;;;;;;;134.73;31.33;;;;;;;;;;4884908;29;20140;-77
2022/01/12 00:35:37;;;;;;;;;;;;;;;;;;4870002;29;20080;-76
2022/01/12 00:38:03;;;;;;;147.95;34.25;;;;;;;;;;4869379;29;19919;-77
2022/01/12 00:40:29;;;;;;;109.15;30.67;;;;;;;;;;4883795;29;20071;-77
2022/01/12 00:42:56;;;;;;;90.78;29.63;;;;;;;;;;4883851;29;20508;-79
2022/01/12 00:45:22;;;;;;;108.85;30.58;;;;;;;;;;4884676;29;20508;-79
2022/01/12 00:47:48;;;;;;;110.78;31.90;;;;;;;;;;4884829;29;20046;-76
2022/01/12 00:50:14;;;;;;;114.10;29.77;;;;;;;;;;4869001;29;20052;-78
2022/01/12 00:52:40;;;;;;;179.50;35.85;;;;;;;;;;4868117;29;20053;-78
2022/01/12 00:55:06;;;;;;;140.93;33.85;;;;;;;;;;4869116;29;20354;-78
2022/01/12 00:57:33;;;;;;;116.25;32.85;;;;;;;;;;4884274;29;20036;-77
2022/01/12 00:59:59;;;;;;;124.20;31.85;;;;;;;;;;4883896;29;20032;-77
2022/01/12 01:02:25;;;;;;;135.57;32.90;;;;;;;;;;4868702;29;20056;-78
2022/01/12 01:04:51;;;;;;;162.02;36.10;;;;;;;;;;4883943;29;20057;-76
2022/01/12 01:07:18;;;;;;;118.70;30.77;;;;;;;;;;4869040;29;20052;-79
2022/01/12 01:09:52;;;;;;;221.45;40.90;;;;;;;;;;4901179;29;20029;-78
2022/01/12 01:12:18;;;;;;;104.63;31.17;;;;;;;;;;4882981;29;20040;-78
2022/01/12 01:15:01;;;;;;;200.43;36.72;;;;;;;;;;4868418;29;20048;-78
2022/01/12 01:25:38;;;;;;;204.20;35.97;;;;;;;;;;4883561;29;20072;-77
2022/01/12 01:28:05;;;;;;;231.10;36.17;;;;;;;;;;4868148;29;20445;-77
2022/01/12 01:30:34;;;;;;;235.13;35.70;;;;;;;;;;4883489;29;20055;-78
2022/01/12 01:33:05;;;;;;;151.60;32.88;;;;;;;;;;4868142;29;20044;-79
2022/01/12 01:35:31;;;;;;;81.25;28.58;;;;;;;;;;4884062;29;20485;-76
2022/01/12 01:38:00;;;;;;;182.02;33.58;;;;;;;;;;4868050;29;20112;-79
2022/01/12 01:40:26;;;;;;;125.32;29.73;;;;;;;;;;4867951;29;20127;-77
2022/01/12 01:43:10;;;;;;;84.70;28.23;;;;;;;;;;4867125;29;20040;-78
2022/01/12 01:54:10;;;;;;;85.55;28.45;;;;;;;;;;4827366;29;20042;-79
2022/01/12 01:56:37;;;;;;;80.00;25.65;;;;;;;;;;4868311;29;20441;-78
2022/01/12 01:59:03;;;;;;;59.17;23.23;;;;;;;;;;4868484;29;20037;-77
2022/01/12 02:01:29;;;;;;;61.95;22.70;;;;;;;;;;4882010;29;20048;-78
2022/01/12 02:03:59;;;;;;;54.15;18.33;;;;;;;;;;4867401;29;20445;-77
2022/01/12 02:06:26;;;;;;;46.10;18.23;;;;;;;;;;4867834;29;20053;-79
2022/01/12 02:08:52;;;;;;;44.05;17.02;;;;;;;;;;4867977;29;20051;-78
2022/01/12 02:11:24;;;;;;;43.65;17.20;;;;;;;;;;4866683;29;20036;-77
2022/01/12 02:13:50;;;;;;;36.50;15.77;;;;;;;;;;4883264;29;20057;-79
2022/01/12 02:16:18;;;;;;;35.65;16.45;;;;;;;;;;4882937;29;20044;-76
2022/01/12 02:35:48;;;;;;;35.25;15.38;;;;;;;;;;4883067;29;20056;-77
2022/01/12 02:40:53;;;;;;;26.92;13.82;;;;;;;;;;4882047;29;20050;-78
2022/01/12 02:51:34;;;;;;;32.33;13.73;;;;;;;;;;4882494;29;20082;-78
2022/01/12 02:54:00;;;;;;;29.17;13.10;;;;;;;;;;4867200;29;20052;-78
2022/01/12 02:56:28;;;;;;;29.50;14.75;;;;;;;;;;4866214;29;20036;-77
2022/01/12 02:58:58;;;;;;;27.85;13.45;;;;;;;;;;4867345;29;20128;-79
2022/01/12 03:03:52;;;;;;;27.35;13.38;;;;;;;;;;4881845;29;20064;-77
2022/01/12 03:06:21;;;;;;;27.45;13.40;;;;;;;;;;4867059;29;20048;-78
2022/01/12 03:08:47;;;;;;;28.33;13.40;;;;;;;;;;4867058;29;20052;-79
2022/01/12 03:11:15;;;;;;;29.38;13.27;;;;;;;;;;4866510;29;20323;-77
2022/01/12 03:13:42;;;;;;;26.00;12.68;;;;;;;;;;4882431;29;20041;-78
2022/01/12 03:16:16;;;;;;;30.58;13.88;;;;;;;;;;4883019;29;20045;-77
2022/01/12 03:18:43;;;;;;;29.23;14.48;;;;;;;;;;4871222;29;20052;-76
2022/01/12 03:21:10;;;;;;;32.63;13.95;;;;;;;;;;4870357;29;20364;-79
2022/01/12 03:23:36;;;;;;;30.35;13.00;;;;;;;;;;4870584;29;20040;-76
2022/01/12 03:26:03;;;;;;;33.05;14.13;;;;;;;;;;4870460;29;20050;-79
2022/01/12 03:28:29;;;;;;;28.08;12.23;;;;;;;;;;4870582;29;20048;-78
2022/01/12 03:31:07;;;;;;;34.22;14.13;;;;;;;;;;4902484;29;20051;-77
2022/01/12 03:33:53;;;;;;;36.47;12.95;;;;;;;;;;4870200;29;20151;-77
2022/01/12 03:38:56;;;;;;;25.70;12.00;;;;;;;;;;4875179;29;20059;-77
2022/01/12 03:41:23;;;;;;;27.42;11.60;;;;;;;;;;4869306;29;20083;-78
2022/01/12 03:43:49;;;;;;;24.10;12.07;;;;;;;;;;4869809;29;20048;-78
2022/01/12 03:46:16;;;;;;;22.38;10.15;;;;;;;;;;4885968;29;20071;-78
2022/01/12 03:48:42;;;;;;;22.63;11.35;;;;;;;;;;4870272;29;20174;-77
2022/01/12 03:51:09;;;;;;;26.52;11.13;;;;;;;;;;4870600;29;20041;-77
2022/01/12 03:53:35;;;;;;;28.77;10.55;;;;;;;;;;4869363;29;20372;-79
2022/01/12 03:56:01;;;;;;;22.00;9.95;;;;;;;;;;4870070;29;20045;-76
2022/01/12 03:58:27;;;;;;;24.35;9.95;;;;;;;;;;4870213;29;20049;-78
2022/01/12 04:00:53;;;;;;;20.25;9.05;;;;;;;;;;4870283;29;20048;-77
2022/01/12 04:03:19;;;;;;;16.85;8.55;;;;;;;;;;4865752;29;20056;-77
2022/01/12 04:08:30;;;;;;;17.90;7.65;;;;;;;;;;4881852;29;20053;-79
2022/01/12 04:10:57;;;;;;;16.23;7.82;;;;;;;;;;4866187;29;20460;-77
2022/01/12 04:13:25;;;;;;;16.02;7.45;;;;;;;;;;4882388;29;20089;-79
2022/01/12 04:15:53;;;;;;;14.15;6.65;;;;;;;;;;4882425;29;20098;-78
2022/01/12 04:18:19;;;;;;;13.75;6.38;;;;;;;;;;4866416;29;20049;-77
2022/01/12 04:20:47;;;;;;;12.45;6.30;;;;;;;;;;4882020;29;20240;-79
2022/01/12 04:23:17;;;;;;;10.55;6.38;;;;;;;;;;4881685;29;20074;-77
2022/01/12 04:25:54;;;;;;;10.73;5.47;;;;;;;;;;4867042;29;20583;-79
2022/01/12 04:28:21;;;;;;;17.20;6.70;;;;;;;;;;4866776;29;20044;-78
2022/01/12 04:30:47;;;;;;;13.02;6.43;;;;;;;;;;4881018;29;20045;-77
2022/01/12 04:33:13;;;;;;;11.02;5.78;;;;;;;;;;4865513;29;20053;-76
2022/01/12 04:35:48;;;;;;;15.88;6.35;;;;;;;;;;4882184;29;20373;-77
2022/01/12 04:38:15;;;;;;;12.18;5.22;;;;;;;;;;4881383;29;20469;-78
2022/01/12 04:40:41;;;;;;;15.45;5.72;;;;;;;;;;4881726;29;20037;-77
2022/01/12 04:43:08;;;;;;;9.27;5.45;;;;;;;;;;4881740;29;20052;-76
2022/01/12 04:48:09;;;;;;;11.60;5.63;;;;;;;;;;4881243;29;20071;-78
2022/01/12 04:50:37;;;;;;;18.17;5.45;;;;;;;;;;4866313;29;20109;-77
2022/01/12 04:53:03;;;;;;;48.83;7.38;;;;;;;;;;4866030;29;20041;-78
2022/01/12 04:55:29;;;;;;;39.88;6.90;;;;;;;;;;4865799;29;20128;-76
2022/01/12 04:57:55;;;;;;;20.95;5.28;;;;;;;;;;4865515;29;20106;-78
2022/01/12 05:00:22;;;;;;;21.13;5.70;;;;;;;;;;4865493;29;20037;-78
2022/01/12 05:13:34;;;;;;;16.48;5.30;;;;;;;;;;4883954;29;20457;-77
2022/01/12 05:16:01;;;;;;;16.45;5.35;;;;;;;;;;4884113;29;20365;-77
2022/01/12 05:18:27;;;;;;;11.07;4.90;;;;;;;;;;4884125;29;20036;-78
2022/01/12 05:20:53;;;;;;;12.25;4.43;;;;;;;;;;4884428;29;20120;-78
2022/01/12 05:23:20;;;;;;;7.30;3.92;;;;;;;;;;4883906;29;20457;-76
2022/01/12 05:25:46;;;;;;;12.05;4.18;;;;;;;;;;4868519;29;20036;-77
2022/01/12 05:28:13;;;;;;;14.05;4.97;;;;;;;;;;4868950;29;20095;-77
2022/01/12 05:30:39;;;;;;;11.70;4.43;;;;;;;;;;4888508;29;20032;-77
2022/01/12 05:33:05;;;;;;;18.35;4.95;;;;;;;;;;4876665;29;20037;-75
2022/01/12 05:35:33;;;;;;;21.08;5.40;;;;;;;;;;4893224;29;20056;-78
2022/01/12 05:38:00;;;;;;;15.98;5.43;;;;;;;;;;4877198;29;20056;-75
2022/01/12 05:40:26;;;;;;;22.60;5.93;;;;;;;;;;4885999;29;20037;-78
2022/01/12 05:42:54;;;;;;;17.73;5.13;;;;;;;;;;4868015;29;20095;-76
2022/01/12 05:45:21;;;;;;;19.98;5.60;;;;;;;;;;4883912;29;20040;-76
2022/01/12 05:50:14;;;;;;;9.10;4.13;;;;;;;;;;4883442;29;20051;-77
2022/01/12 05:52:43;;;;;;;11.68;4.70;;;;;;;;;;4883301;29;20041;-77
2022/01/12 05:55:10;;;;;;;16.95;5.57;;;;;;;;;;4883882;29;20425;-79
2022/01/12 05:57:36;;;;;;;9.63;3.97;;;;;;;;;;4867592;29;20040;-78
2022/01/12 06:00:07;;;;;;;16.42;5.75;;;;;;;;;;4867313;29;20448;-77
2022/01/12 06:02:33;;;;;;;17.02;5.95;;;;;;;;;;4867581;29;20384;-79
2022/01/12 06:04:59;;;;;;;9.98;4.45;;;;;;;;;;4867726;29;20048;-79
2022/01/12 06:07:25;;;;;;;17.00;4.90;;;;;;;;;;4867699;29;20360;-77
2022/01/12 06:09:51;;;;;;;21.48;6.97;;;;;;;;;;4883747;29;20104;-78
2022/01/12 06:12:17;;;;;;;13.48;4.90;;;;;;;;;;4867417;29;20048;-79
2022/01/12 06:14:43;;;;;;;14.50;4.88;;;;;;;;;;4868094;29;20522;-77
2022/01/12 06:17:10;;;;;;;23.95;5.40;;;;;;;;;;4883434;29;20036;-77
2022/01/12 06:19:36;;;;;;;15.68;4.63;;;;;;;;;;4867333;29;20041;-78
2022/01/12 06:22:03;;;;;;;24.73;5.43;;;;;;;;;;4867727;29;20451;-79
2022/01/12 06:24:29;;;;;;;34.22;6.18;;;;;;;;;;4867431;29;20037;-78
2022/01/12 06:26:55;;;;;;;39.47;7.43;;;;;;;;;;4867434;29;20055;-78
2022/01/12 06:29:26;;;;;;;27.83;5.97;;;;;;;;;;4867013;29;20100;-79
2022/01/12 06:31:56;;;;;;;39.63;6.25;;;;;;;;;;4866787;29;20434;-76
2022/01/12 06:34:23;;;;;;;38.85;7.43;;;;;;;;;;4866877;29;20045;-78
2022/01/12 06:36:49;;;;;;;58.55;7.80;;;;;;;;;;4882913;29;20047;-78
2022/01/12 06:39:20;;;;;;;38.67;6.50;;;;;;;;;;4867922;29;20075;-79
2022/01/12 06:41:46;;;;;;;34.13;5.00;;;;;;;;;;4883039;29;20044;-79
2022/01/12 06:44:16;;;;;;;41.03;5.85;;;;;;;;;;4866730;29;20072;-77
2022/01/12 06:46:44;;;;;;;19.60;4.57;;;;;;;;;;4867593;29;20037;-79
2022/01/12 06:49:11;;;;;;;18.35;4.30;;;;;;;;;;4866902;29;20040;-77
2022/01/12 06:51:37;;;;;;;21.90;4.90;;;;;;;;;;4866601;29;20373;-78
2022/01/12 06:57:23;;;;;;;13.27;4.65;;;;;;;;;;4871744;29;20069;-79
2022/01/12 06:59:50;;;;;;;24.30;6.45;;;;;;;;;;4861853;29;20369;-78
2022/01/12 07:02:25;;;;;;;60.92;9.27;;;;;;;;;;4882175;29;20064;-78
2022/01/12 07:04:54;;;;;;;21.30;5.68;;;;;;;;;;4866520;29;20080;-79
2022/01/12 07:07:20;;;;;;;22.02;5.65;;;;;;;;;;4867189;29;20048;-79
2022/01/12 07:09:46;;;;;;;47.67;8.38;;;;;;;;;;4866340;29;20127;-79
2022/01/12 07:12:12;;;;;;;54.65;7.18;;;;;;;;;;4866387;29;20036;-79
2022/01/12 07:14:38;;;;;;;33.97;6.00;;;;;;;;;;4864940;29;20422;-79
2022/01/12 07:17:06;;;;;;;67.97;7.60;;;;;;;;;;4864925;29;20105;-79
2022/01/12 07:19:32;;;;;;;51.05;6.72;;;;;;;;;;4864710;29;20060;-79
2022/01/12 07:21:58;;;;;;;62.17;6.63;;;;;;;;;;4867530;29;20485;-79
2022/01/12 07:24:24;;;;;;;88.70;7.82;;;;;;;;;;4867543;29;20040;-79
2022/01/12 07:26:53;;;;;;;39.22;6.18;;;;;;;;;;4866646;29;20126;-80
2022/01/12 07:29:22;;;;;;;70.72;7.03;;;;;;;;;;4873124;29;20128;-79
2022/01/12 07:31:50;;;;;;;44.45;5.38;;;;;;;;;;4880692;29;20582;-79
2022/01/12 07:34:18;;;;;;;54.55;7.38;;;;;;;;;;4883267;29;20040;-79
2022/01/12 07:40:26;;;;;;;23.75;5.10;;;;;;;;;;4823864;29;20042;-79
2022/01/12 07:43:18;;;;;;;37.85;5.95;;;;;;;;;;4867792;29;20469;-78
2022/01/12 07:46:07;;;;;;;;;;;;;;;;;;;;;
2022/01/12 07:48:55;;;;;;;33.22;5.07;;;;;;;;;;4883158;29;20138;-81
2022/01/12 07:55:12;;;;;;;38.20;5.22;;;;;;;;;;4844878;29;20069;-81
2022/01/12 07:57:53;;;;;;;48.67;5.60;;;;;;;;;;4816366;29;20064;-81
2022/01/12 08:00:20;;;;;;;49.90;6.80;;;;;;;;;;4813498;29;20061;-79
2022/01/12 08:02:46;;;;;;;53.67;7.90;;;;;;;;;;4830379;29;20050;-77
2022/01/12 08:05:13;;;;;;;74.35;9.65;;;;;;;;;;4829008;29;20117;-78
2022/01/12 08:07:42;;;;;;;88.28;11.02;;;;;;;;;;4859804;29;20490;-78
2022/01/12 08:10:28;;;;;;;83.38;11.93;;;;;;;;;;4813763;29;20098;-80
2022/01/12 08:12:57;;;;;;;52.72;9.27;;;;;;;;;;4861439;29;20068;-79
2022/01/12 08:15:37;;;;;;;77.72;9.20;;;;;;;;;;4832140;29;20089;-79
2022/01/12 08:18:06;;;;;;;97.28;8.75;;;;;;;;;;4843330;29;20065;-79
2022/01/12 08:20:35;;;;;;;52.42;6.40;;;;;;;;;;4833381;29;20042;-79
2022/01/12 08:23:20;;;;;;;43.17;5.15;;;;;;;;;;4840839;29;20088;-80
2022/01/12 08:25:46;;;;;;;45.13;5.20;;;;;;;;;;4831810;29;20109;-79
2022/01/12 08:28:31;;;;;;;40.42;5.35;;;;;;;;;;4854040;29;20096;-82
2022/01/12 08:31:22;;;;;;;;;;;;;;;;;;;;;
2022/01/12 08:41:23;;;;;;;16.70;5.20;;;;;;;;;;4849470;29;20101;-81
2022/01/12 08:43:50;;;;;;;17.17;5.68;;;;;;;;;;4846254;29;20683;-79
2022/01/12 08:46:16;;;;;;;22.42;5.63;;;;;;;;;;4845491;29;20427;-79
2022/01/12 08:49:13;;;;;;;14.10;4.75;;;;;;;;;;4830520;29;20064;-78
2022/01/12 08:51:57;;;;;;;;;;;;;;;;;;;;;
2022/01/12 08:54:54;;;;;;;12.10;4.35;;;;;;;;;;4841667;29;20118;-80
2022/01/12 08:57:23;;;;;;;16.38;5.38;;;;;;;;;;4838118;29;20386;-80
2022/01/12 08:59:49;;;;;;;11.15;4.55;;;;;;;;;;4835951;29;20108;-75
2022/01/12 09:02:16;;;;;;;12.88;5.20;;;;;;;;;;4876483;29;20064;-76
2022/01/12 09:04:45;;;;;;;15.63;5.57;;;;;;;;;;4880790;29;20354;-77
2022/01/12 09:07:11;;;;;;;15.18;5.50;;;;;;;;;;4880727;29;20113;-79
2022/01/12 09:09:37;;;;;;;11.60;5.25;;;;;;;;;;4880980;29;20055;-77
2022/01/12 09:12:05;;;;;;;13.88;5.18;;;;;;;;;;4880298;29;20052;-77
2022/01/12 09:14:31;;;;;;;16.10;5.80;;;;;;;;;;4878679;29;20088;-76
2022/01/12 09:16:58;;;;;;;14.70;6.25;;;;;;;;;;4879918;29;20330;-77
2022/01/12 09:19:25;;;;;;;10.73;5.30;;;;;;;;;;4879046;29;20049;-77
2022/01/12 09:21:51;;;;;;;12.13;4.97;;;;;;;;;;4880183;29;20044;-76
2022/01/12 09:24:18;;;;;;;12.93;4.93;;;;;;;;;;4881095;29;20049;-73
2022/01/12 09:26:44;;;;;;;13.13;4.80;;;;;;;;;;4879469;29;20306;-76
2022/01/12 09:29:10;;;;;;;12.00;4.93;;;;;;;;;;4880991;29;20049;-76
2022/01/12 09:31:36;;;;;;;12.20;4.95;;;;;;;;;;4881060;29;20069;-78
2022/01/12 09:34:03;;;;;;;13.25;4.93;;;;;;;;;;4881052;29;20497;-76
2022/01/12 09:36:29;;;;;;;10.98;5.15;;;;;;;;;;4879823;29;20465;-78
2022/01/12 09:38:55;;;;;;;12.85;5.32;;;;;;;;;;4895188;29;20044;-78
2022/01/12 09:41:25;;;;;;;12.48;5.05;;;;;;;;;;4880955;29;20044;-79
2022/01/12 09:43:51;;;;;;;18.48;6.30;;;;;;;;;;4880831;29;20075;-77
2022/01/12 09:46:19;;;;;;;14.73;6.70;;;;;;;;;;4881297;29;20056;-76
2022/01/12 09:48:45;;;;;;;15.38;6.50;;;;;;;;;;4879886;29;20186;-77
2022/01/12 09:51:11;;;;;;;18.98;6.90;;;;;;;;;;4879819;29;20357;-77
2022/01/12 09:53:39;;;;;;;17.35;7.25;;;;;;;;;;4867374;29;20041;-74
2022/01/12 09:56:10;;;;;;;16.40;6.60;;;;;;;;;;4878865;29;20049;-75
2022/01/12 09:58:39;;;;;;;15.50;5.65;;;;;;;;;;4879750;29;20041;-82
2022/01/12 10:01:05;;;;;;;17.15;5.97;;;;;;;;;;4879381;29;20326;-75
2022/01/12 10:03:31;;;;;;;15.98;5.63;;;;;;;;;;4879946;29;20053;-75
2022/01/12 10:05:57;;;;;;;23.23;6.20;;;;;;;;;;4880121;29;20097;-75
2022/01/12 10:08:23;;;;;;;19.15;5.65;;;;;;;;;;4879917;29;20563;-79
2022/01/12 10:11:09;;;;;;;14.98;5.93;;;;;;;;;;4879722;29;20358;-78
2022/01/12 10:13:37;;;;;;;15.90;5.60;;;;;;;;;;4880425;29;20056;-78
2022/01/12 10:16:11;;;;;;;12.48;4.95;;;;;;;;;;4880522;29;20053;-77
2022/01/12 10:18:44;;;;;;;17.20;5.68;;;;;;;;;;4880048;29;20080;-74
2022/01/12 10:21:10;;;;;;;15.00;5.00;;;;;;;;;;4879799;29;20053;-78
2022/01/12 10:23:39;;;;;;;13.98;4.57;;;;;;;;;;4879262;29;20441;-75
2022/01/12 10:26:05;;;;;;;18.55;5.38;;;;;;;;;;4878858;29;20458;-75
2022/01/12 10:28:31;;;;;;;17.75;5.47;;;;;;;;;;4879891;29;20181;-77
2022/01/12 10:30:58;;;;;;;20.70;5.75;;;;;;;;;;4879765;29;20056;-76
2022/01/12 10:33:26;;;;;;;19.98;5.65;;;;;;;;;;4878964;29;20549;-74
2022/01/12 10:35:56;;;;;;;21.63;5.35;;;;;;;;;;4879565;29;20060;-77
2022/01/12 10:38:23;;;;;;;15.18;5.03;;;;;;;;;;4863958;29;20056;-75
2022/01/12 10:40:53;;;;;;;14.77;5.20;;;;;;;;;;4880222;29;20092;-79
2022/01/12 10:43:38;;;;;;;17.25;5.70;;;;;;;;;;4879584;29;20037;-75
2022/01/12 10:46:06;;;;;;;14.18;5.35;;;;;;;;;;4880157;29;20048;-77
2022/01/12 10:48:49;;;;;;;18.55;5.90;;;;;;;;;;4881301;29;20052;-77
2022/01/12 10:51:16;;;;;;;22.88;5.88;;;;;;;;;;4892906;29;20074;-75
2022/01/12 10:53:42;;;;;;;15.73;5.30;;;;;;;;;;4891303;29;20097;-78
2022/01/12 10:56:10;;;;;;;17.98;5.90;;;;;;;;;;4873467;29;20049;-78
2022/01/12 10:58:37;;;;;;;17.23;5.72;;;;;;;;;;4887498;29;20055;-78
2022/01/12 11:01:03;;;;;;;20.08;5.20;;;;;;;;;;4878291;29;20049;-79
2022/01/12 11:03:30;;;;;;;21.02;5.85;;;;;;;;;;4878794;29;20088;-79
2022/01/12 11:05:57;;;;;;;20.67;5.55;;;;;;;;;;4879299;29;20079;-76
2022/01/12 11:08:24;;;;;;;16.48;5.97;;;;;;;;;;4878183;29;20097;-78
2022/01/12 11:10:50;;;;;;;20.58;5.65;;;;;;;;;;4879875;29;20509;-78
2022/01/12 11:13:16;;;;;;;13.15;5.15;;;;;;;;;;4863112;29;20347;-80
2022/01/12 11:15:46;;;;;;;17.25;6.05;;;;;;;;;;4863633;29;20025;-80
2022/01/12 11:18:13;;;;;;;18.20;5.88;;;;;;;;;;4878919;29;20112;-78
2022/01/12 11:20:41;;;;;;;19.17;6.35;;;;;;;;;;4878775;29;20041;-78
2022/01/12 11:23:07;;;;;;;20.48;5.82;;;;;;;;;;4879537;29;20048;-78
2022/01/12 11:25:38;;;;;;;22.58;5.90;;;;;;;;;;4878974;29;20416;-77
2022/01/12 11:28:07;;;;;;;18.50;6.75;;;;;;;;;;4878685;29;20357;-79
2022/01/12 11:30:33;;;;;;;18.63;6.63;;;;;;;;;;4879269;29;20036;-78
2022/01/12 11:33:01;;;;;;;20.98;6.40;;;;;;;;;;4879167;29;20041;-78
2022/01/12 11:35:28;;;;;;;20.23;6.43;;;;;;;;;;4880581;29;20053;-78
2022/01/12 11:37:59;;;;;;;22.33;6.60;;;;;;;;;;4880916;29;20427;-78
2022/01/12 11:40:39;;;;;;;31.10;6.20;;;;;;;;;;4883074;29;20128;-79
2022/01/12 11:43:17;;;;;;;13.77;5.50;;;;;;;;;;4859975;29;20041;-78
2022/01/12 11:45:43;;;;;;;18.55;6.18;;;;;;;;;;4880070;29;20338;-74
2022/01/12 11:48:09;;;;;;;19.85;5.88;;;;;;;;;;4866671;29;20139;-78
2022/01/12 11:50:35;;;;;;;19.25;5.85;;;;;;;;;;4867138;29;20040;-78
2022/01/12 11:53:02;;;;;;;17.50;6.07;;;;;;;;;;4882382;29;20066;-78
2022/01/12 11:55:34;;;;;;;18.60;6.32;;;;;;;;;;4882312;29;20116;-78
2022/01/12 11:58:03;;;;;;;20.90;5.90;;;;;;;;;;4866831;29;20053;-78
2022/01/12 12:00:31;;;;;;;15.73;5.40;;;;;;;;;;4881652;29;20458;-78
2022/01/12 12:02:57;;;;;;;19.85;5.90;;;;;;;;;;4866676;29;20068;-79
2022/01/12 12:05:30;;;;;;;16.02;5.65;;;;;;;;;;4882066;29;20061;-79
2022/01/12 12:08:01;;;;;;;15.73;5.75;;;;;;;;;;4882057;29;20049;-78
2022/01/12 12:10:28;;;;;;;19.02;5.97;;;;;;;;;;4882464;29;20406;-78
2022/01/12 12:12:55;;;;;;;19.15;5.40;;;;;;;;;;4881650;29;20036;-78
2022/01/12 12:15:23;;;;;;;20.27;6.68;;;;;;;;;;4881751;29;20472;-78
2022/01/12 12:17:50;;;;;;;17.90;6.10;;;;;;;;;;4882301;29;20049;-79
2022/01/12 12:20:17;;;;;;;20.17;5.68;;;;;;;;;;4881991;29;20049;-79
2022/01/12 12:22:45;;;;;;;17.98;5.03;;;;;;;;;;4866497;29;20045;-78
2022/01/12 12:25:16;;;;;;;16.52;5.43;;;;;;;;;;4882708;29;20065;-79
2022/01/12 12:27:43;;;;;;;18.85;5.93;;;;;;;;;;4882111;29;20048;-78
2022/01/12 12:30:19;;;;;;;18.45;5.10;;;;;;;;;;4882284;29;20350;-79
2022/01/12 12:32:45;;;;;;;17.23;5.43;;;;;;;;;;4882748;29;20059;-79
2022/01/12 12:35:19;;;;;;;22.75;6.00;;;;;;;;;;4866463;29;20055;-78
2022/01/12 12:37:46;;;;;;;20.30;5.50;;;;;;;;;;4882096;29;20053;-78
2022/01/12 12:40:16;;;;;;;19.67;5.90;;;;;;;;;;4883201;29;20144;-78
2022/01/12 12:42:42;;;;;;;15.68;5.35;;;;;;;;;;4881258;29;20468;-78
2022/01/12 12:45:09;;;;;;;19.10;6.10;;;;;;;;;;4880499;29;20052;-78
2022/01/12 12:47:35;;;;;;;25.50;6.80;;;;;;;;;;4866074;29;20373;-78
2022/01/12 12:50:02;;;;;;;19.30;5.80;;;;;;;;;;4880545;29;20113;-78
2022/01/12 12:52:30;;;;;;;16.30;5.57;;;;;;;;;;4881689;29;20064;-79
2022/01/12 12:54:57;;;;;;;18.73;5.75;;;;;;;;;;4881734;29;20077;-79
2022/01/12 12:57:24;;;;;;;20.92;5.68;;;;;;;;;;4865827;29;20052;-78
2022/01/12 12:59:51;;;;;;;16.85;5.00;;;;;;;;;;4881555;29;20462;-79
2022/01/12 13:02:17;;;;;;;13.05;5.72;;;;;;;;;;4880255;29;20068;-79
2022/01/12 13:04:43;;;;;;;22.90;5.43;;;;;;;;;;4882036;29;20044;-79
2022/01/12 13:07:14;;;;;;;15.02;5.53;;;;;;;;;;4880956;29;20040;-79
2022/01/12 13:09:41;;;;;;;15.98;5.18;;;;;;;;;;4882181;29;20041;-78
2022/01/12 13:12:07;;;;;;;15.80;5.07;;;;;;;;;;4881649;29;20041;-78
2022/01/12 13:14:42;;;;;;;16.02;4.30;;;;;;;;;;4865205;29;20062;-79
2022/01/12 13:17:08;;;;;;;15.57;4.40;;;;;;;;;;4865758;29;20049;-79
2022/01/12 13:22:33;;;;;;;17.98;4.32;;;;;;;;;;4880852;29;20049;-79
2022/01/12 13:25:00;;;;;;;20.60;4.47;;;;;;;;;;4881116;29;20369;-79
2022/01/12 13:27:27;;;;;;;17.88;5.53;;;;;;;;;;4865049;29;20045;-78
2022/01/12 13:29:54;;;;;;;19.02;4.18;;;;;;;;;;4881360;29;20061;-79
2022/01/12 13:32:25;;;;;;;11.75;3.03;;;;;;;;;;4864834;29;20051;-79
2022/01/12 13:35:08;;;;;;;12.98;3.90;;;;;;;;;;4864623;29;20049;-79
2022/01/12 13:37:34;;;;;;;11.23;3.47;;;;;;;;;;4880344;29;20461;-78
2022/01/12 13:40:21;;;;;;;15.65;3.45;;;;;;;;;;4864724;29;20461;-79
2022/01/12 13:42:51;;;;;;;13.50;3.47;;;;;;;;;;4880564;29;20080;-78
2022/01/12 13:45:22;;;;;;;9.52;3.50;;;;;;;;;;4880276;29;20060;-78
2022/01/12 13:47:54;;;;;;;10.02;3.65;;;;;;;;;;4865125;29;20136;-79
2022/01/12 13:50:26;;;;;;;10.93;3.30;;;;;;;;;;4864641;29;20048;-79
2022/01/12 13:52:54;;;;;;;16.52;3.45;;;;;;;;;;4879623;29;20097;-78
2022/01/12 13:55:20;;;;;;;11.32;3.20;;;;;;;;;;4881317;29;20166;-78
2022/01/12 13:57:46;;;;;;;11.82;3.22;;;;;;;;;;4881336;29;20045;-79
2022/01/12 14:00:19;;;;;;;12.18;3.60;;;;;;;;;;4880127;29;20048;-78
2022/01/12 14:02:45;;;;;;;13.95;4.80;;;;;;;;;;4879653;29;20057;-79
2022/01/12 14:05:18;;;;;;;14.70;4.15;;;;;;;;;;4879911;29;20060;-79
2022/01/12 14:07:59;;;;;;;10.25;3.80;;;;;;;;;;4880466;29;20041;-79
2022/01/12 14:10:26;;;;;;;14.50;3.72;;;;;;;;;;4863720;29;20430;-76
2022/01/12 14:12:52;;;;;;;13.55;3.60;;;;;;;;;;4879975;29;20441;-77
2022/01/12 14:15:22;;;;;;;14.73;3.80;;;;;;;;;;4879762;29;20041;-79
2022/01/12 14:17:48;;;;;;;14.10;3.40;;;;;;;;;;4880523;29;20041;-78
2022/01/12 14:20:23;;;;;;;11.07;3.53;;;;;;;;;;4863770;29;20037;-77
2022/01/12 14:22:49;;;;;;;13.10;4.22;;;;;;;;;;4880981;29;20061;-77
2022/01/12 14:25:16;;;;;;;12.20;3.80;;;;;;;;;;4879460;29;20445;-78
2022/01/12 14:27:49;;;;;;;12.32;4.03;;;;;;;;;;4879007;29;20162;-78
2022/01/12 14:30:17;;;;;;;13.75;3.65;;;;;;;;;;4880015;29;20371;-79
2022/01/12 14:32:43;;;;;;;11.45;3.50;;;;;;;;;;4879676;29;20044;-79
2022/01/12 14:35:17;;;;;;;16.08;4.03;;;;;;;;;;4879338;29;20465;-80
2022/01/12 14:37:46;;;;;;;11.32;3.60;;;;;;;;;;4879319;29;20150;-81
2022/01/12 14:40:13;;;;;;;19.08;4.25;;;;;;;;;;4864001;29;20060;-77
2022/01/12 14:42:42;;;;;;;18.83;4.93;;;;;;;;;;4879050;29;20120;-76
2022/01/12 14:45:09;;;;;;;12.38;4.05;;;;;;;;;;4880318;29;20053;-77
2022/01/12 14:47:35;;;;;;;17.42;3.90;;;;;;;;;;4879572;29;20045;-77
2022/01/12 14:50:05;;;;;;;12.75;3.83;;;;;;;;;;4880484;29;20049;-79
2022/01/12 14:52:31;;;;;;;12.20;3.65;;;;;;;;;;4863719;29;20048;-78
2022/01/12 14:54:57;;;;;;;12.82;3.80;;;;;;;;;;4878966;29;20128;-77
2022/01/12 14:57:23;;;;;;;11.05;3.20;;;;;;;;;;4879914;29;20167;-78
2022/01/12 14:59:49;;;;;;;12.63;3.47;;;;;;;;;;4878979;29;20494;-77
2022/01/12 15:02:15;;;;;;;13.57;3.95;;;;;;;;;;4881148;29;20158;-77
2022/01/12 15:04:41;;;;;;;11.52;3.72;;;;;;;;;;4882624;29;20064;-77
2022/01/12 15:07:07;;;;;;;16.67;4.00;;;;;;;;;;4882181;29;20377;-78
2022/01/12 15:09:34;;;;;;;15.75;3.75;;;;;;;;;;4866684;29;20068;-77
2022/01/12 15:12:01;;;;;;;13.32;4.18;;;;;;;;;;4863859;29;20045;-77
2022/01/12 15:14:46;;;;;;;15.73;4.18;;;;;;;;;;4867704;29;20045;-78
2022/01/12 15:17:12;;;;;;;18.73;4.40;;;;;;;;;;4872866;29;20040;-78
2022/01/12 15:19:38;;;;;;;15.25;4.90;;;;;;;;;;4886541;29;20440;-77
2022/01/12 15:22:07;;;;;;;15.52;4.80;;;;;;;;;;4886362;29;20056;-82
2022/01/12 15:24:33;;;;;;;15.52;4.38;;;;;;;;;;4886775;29;20125;-78
2022/01/12 15:27:00;;;;;;;16.20;4.80;;;;;;;;;;4885716;29;20044;-78
2022/01/12 15:29:26;;;;;;;16.67;4.28;;;;;;;;;;4871136;29;20504;-78
2022/01/12 15:31:52;;;;;;;19.77;4.40;;;;;;;;;;4902579;29;20045;-77
2022/01/12 15:34:18;;;;;;;16.63;4.57;;;;;;;;;;4886370;29;20040;-77
2022/01/12 15:36:44;;;;;;;14.57;4.97;;;;;;;;;;4900527;29;20050;-78
2022/01/12 15:39:10;;;;;;;19.45;6.47;;;;;;;;;;4886045;29;20058;-78
2022/01/12 15:41:36;;;;;;;12.27;4.60;;;;;;;;;;4901734;29;20046;-79
2022/01/12 15:44:02;;;;;;;11.45;4.45;;;;;;;;;;4902602;29;20048;-78
2022/01/12 15:46:28;;;;;;;9.23;3.70;;;;;;;;;;4902234;29;20051;-78
2022/01/12 15:48:54;;;;;;;14.63;4.75;;;;;;;;;;4870452;29;20183;-78
2022/01/12 15:51:20;;;;;;;13.25;4.85;;;;;;;;;;4885277;29;20108;-78
2022/01/12 15:53:46;;;;;;;13.95;4.70;;;;;;;;;;4885524;29;20048;-79
2022/01/12 15:56:13;;;;;;;18.13;4.63;;;;;;;;;;4885366;29;20063;-77
2022/01/12 15:58:40;;;;;;;12.18;4.85;;;;;;;;;;4876816;29;20108;-77
2022/01/12 16:01:06;;;;;;;15.50;5.45;;;;;;;;;;4885397;29;20053;-79
2022/01/12 16:03:33;;;;;;;17.45;6.22;;;;;;;;;;4877574;29;20041;-77
2022/01/12 16:05:59;;;;;;;17.92;6.57;;;;;;;;;;4885318;29;20049;-78
2022/01/12 16:08:25;;;;;;;15.43;5.15;;;;;;;;;;4869410;29;20314;-79
2022/01/12 16:10:51;;;;;;;15.13;4.93;;;;;;;;;;4885213;29;20048;-78
2022/01/12 16:13:19;;;;;;;16.23;5.88;;;;;;;;;;4891938;29;20461;-78